Flight Track Log - Related Links

Times and Time Zones

All times are in EDT time to prevent confusion due to time zone crossing. See the FIN666 flight status page for this flight to view local times or setup timezone preferences in your user account.

Time Position Orientation Groundspeed Altitude Reporting Facility
EDT Latitude Longitude Course Direction KTS MPH feet Rate Location/Type
Fri 08:19:00 AM 55.8708 13.1793 49° Northeast  Level Estimated
Fri 08:20:00 AM 55.9546 13.3553 50° Northeast  Level Estimated
Fri 08:21:00 AM 56.0382 13.5320 50° Northeast  Level Estimated
Fri 08:22:00 AM 56.1215 13.7095 50° Northeast  Level Estimated
Fri 08:23:00 AM 56.2046 13.8877 50° Northeast  Level Estimated
Fri 08:24:00 AM 56.2873 14.0668 50° Northeast  Level Estimated
Fri 08:25:00 AM 56.3699 14.2466 50° Northeast  Level Estimated
Fri 08:26:00 AM 56.4521 14.4272 50° Northeast  Level Estimated
Fri 08:27:00 AM 56.5341 14.6085 51° Northeast  Level Estimated
Fri 08:28:00 AM 56.6159 14.7907 51° Northeast  Level Estimated
Fri 08:29:00 AM 56.6974 14.9736 51° Northeast  Level Estimated
Fri 08:30:00 AM 56.7786 15.1574 51° Northeast  Level Estimated
Fri 08:31:00 AM 56.8608 15.3449 51° Northeast  Level Estimated
Fri 08:32:00 AM 56.9428 15.5333 51° Northeast  Level Estimated
Fri 08:33:00 AM 57.0245 15.7225 52° Northeast  Level Estimated
Fri 08:34:00 AM 57.1059 15.9126 52° Northeast  Level Estimated
Fri 08:35:00 AM 57.1870 16.1035 52° Northeast  Level Estimated
Fri 08:36:00 AM 57.2678 16.2952 52° Northeast  Level Estimated
Fri 08:37:00 AM 57.3484 16.4878 52° Northeast  Level Estimated
Fri 08:38:00 AM 57.4286 16.6812 52° Northeast  Level Estimated
Fri 08:39:00 AM 57.5085 16.8754 52° Northeast  Level Estimated
Fri 08:40:00 AM 57.5882 17.0705 53° Northeast  Level Estimated
Fri 08:41:00 AM 57.6675 17.2665 53° Northeast  Level Estimated
Fri 08:42:00 AM 57.7466 17.4633 53° Northeast  Level Estimated
Fri 08:43:00 AM 57.8253 17.6610 53° Northeast  Level Estimated
Fri 08:44:00 AM 57.9037 17.8596 53° Northeast  Level Estimated
Fri 08:45:00 AM 57.9818 18.0590 53° Northeast  Level Estimated
Fri 08:46:00 AM 58.0596 18.2593 54° Northeast  Level Estimated
Fri 08:47:00 AM 58.1371 18.4604 54° Northeast  Level Estimated
Fri 08:48:00 AM 58.2142 18.6624 54° Northeast  Level Estimated
Fri 08:49:00 AM 58.2911 18.8654 54° Northeast  Level Estimated
Fri 08:50:00 AM 58.3676 19.0691 54° Northeast  Level Estimated
Fri 08:51:00 AM 58.4438 19.2738 55° Northeast  Level Estimated
Fri 08:52:00 AM 58.5196 19.4794 55° Northeast  Level Estimated
Fri 08:53:00 AM 58.5952 19.6858 55° Northeast  Level Estimated
Fri 08:54:00 AM 58.6704 19.8932 55° Northeast  Level Estimated
Fri 08:55:00 AM 58.7453 20.1014 55° Northeast  Level Estimated
Fri 08:56:00 AM 58.8198 20.3105 55° Northeast  Level Estimated
Fri 08:57:00 AM 58.8940 20.5205 56° Northeast  Level Estimated
Fri 08:58:00 AM 58.9678 20.7315 56° Northeast  Level Estimated
Fri 08:59:00 AM 59.0413 20.9433 56° Northeast  Level Estimated
Fri 09:00:00 AM 59.1145 21.1561 56° Northeast  Level Estimated
Fri 09:01:00 AM 59.1873 21.3697 56° Northeast  Level Estimated
Fri 09:02:00 AM 59.2597 21.5843 56° Northeast  Level Estimated
Fri 09:03:00 AM 59.3318 21.7997 57° Northeast  Level Estimated
Fri 09:04:00 AM 59.4036 22.0161 57° Northeast  Level Estimated
Fri 09:05:00 AM 59.4750 22.2334 57° Northeast  Level Estimated
Fri 09:06:00 AM 59.5460 22.4516 57° Northeast  Level Estimated
Fri 09:07:00 AM 59.6166 22.6708 57° Northeast  Level Estimated
Fri 09:08:00 AM 59.6869 22.8908 58° Northeast  Level Estimated
Fri 09:09:00 AM 59.7569 23.1118 58° Northeast  Level Estimated
Fri 09:10:00 AM 59.8264 23.3337 58° Northeast  Level Estimated
Fri 09:11:00 AM 59.8956 23.5566 58° Northeast  Level Estimated
Fri 09:12:00 AM 59.9644 23.7803 58° Northeast  Level Estimated
Fri 09:13:00 AM 60.0328 24.0050 59° Northeast  Level Estimated
Fri 09:14:00 AM 60.1008 24.2306 59° Northeast  Level Estimated
Fri 09:15:00 AM 60.1685 24.4572 59° Northeast  Level Estimated
Fri 09:16:00 AM 60.2357 24.6847 59° Northeast  Level Estimated
Fri 09:17:00 AM 60.3026 24.9131 59° Northeast  Level Estimated
Fri 09:18:00 AM 60.3172 24.9633 60° Northeast  Level Estimated
Fri 09:19:00 AM 60.3172 24.9633 North  Level Estimated
Fri 09:20:00 AM 60.3172 24.9633 North  Level Estimated
Fri 09:21:00 AM 60.3172 24.9633 North  Level Estimated
Fri 09:22:00 AM 60.3172 24.9633 North  Level Estimated
Fri 09:23:00 AM 60.3172 24.9633 North  Level Estimated
Fri 09:24:00 AM 60.3172 24.9633 North  Level Estimated
Fri 09:25:00 AM 60.3172 24.9633 North  Level Estimated
Fri 09:26:00 AM 60.3172 24.9633 North  Level Estimated
Fri 09:27:00 AM 60.3172 24.9633 North  Level Estimated
Fri 09:28:00 AM 60.3172 24.9633 North  Level Estimated
Fri 09:29:00 AM 60.3172 24.9633 North  Level Estimated
Fri 09:30:00 AM 60.3172 24.9633 North  Level Estimated
Fri 09:31:00 AM 60.3172 24.9633 North  Level Estimated
Fri 09:32:00 AM 60.3172 24.9633 North  Level Estimated

Login

Don't have an account? Register now (free) for customized features, flight alerts, and more!